Time;durP1;ratioP1;P1;durP2;ratioP2;P2;SDS_P1;SDS_P2;PMS_P1;PMS_P2;Temp;Humidity;BMP_temperature;BMP_pressure;BME280_temperature;BME280_humidity;BME280_pressure;Samples;Min_cycle;Max_cycle;Signal;HPM_P1;HPM_P2
2022/02/12 00:00:08;;;;;;;9.67;2.43;;;0.60;99.90;;;;;;5095357;28;20048;-68
2022/02/12 00:02:35;;;;;;;8.90;2.50;;;0.60;99.90;;;;;;5095199;28;20135;-68
2022/02/12 00:05:03;;;;;;;11.77;2.93;;;0.50;99.90;;;;;;5095004;28;20131;-68
2022/02/12 00:07:30;;;;;;;9.70;2.30;;;0.40;99.90;;;;;;5095315;28;20517;-68
2022/02/12 00:09:57;;;;;;;12.00;3.53;;;0.40;99.90;;;;;;5095275;28;20131;-68
2022/02/12 00:12:24;;;;;;;10.83;2.53;;;0.40;99.90;;;;;;5095179;28;20586;-68
2022/02/12 00:14:52;;;;;;;10.40;2.10;;;0.40;99.90;;;;;;5095024;28;20134;-68
2022/02/12 00:17:19;;;;;;;5.63;1.87;;;0.40;99.90;;;;;;5095134;28;20056;-68
2022/02/12 00:19:46;;;;;;;9.50;2.70;;;0.30;99.90;;;;;;5095291;28;20070;-68
2022/02/12 00:22:13;;;;;;;9.53;2.43;;;0.20;99.90;;;;;;5094958;28;20052;-68
2022/02/12 00:24:40;;;;;;;10.33;2.53;;;0.20;99.90;;;;;;5095017;28;20048;-68
2022/02/12 00:27:07;;;;;;;11.87;2.33;;;0.10;99.90;;;;;;5094846;28;20135;-68
2022/02/12 00:29:34;;;;;;;9.13;2.50;;;0.10;99.90;;;;;;5094980;28;20135;-68
2022/02/12 00:32:02;;;;;;;10.33;2.20;;;0.10;99.90;;;;;;5095460;28;20135;-68
2022/02/12 00:34:29;;;;;;;14.33;2.70;;;0.00;99.90;;;;;;5115233;28;20028;-69
2022/02/12 00:36:56;;;;;;;8.87;2.60;;;0.00;99.90;;;;;;5117393;28;20051;-69
2022/02/12 00:39:23;;;;;;;7.10;2.73;;;0.00;99.90;;;;;;5109702;28;20079;-68
2022/02/12 00:41:50;;;;;;;9.37;2.27;;;-0.20;99.90;;;;;;5094628;28;20054;-68
2022/02/12 00:44:17;;;;;;;9.40;2.40;;;-0.10;99.90;;;;;;5095032;28;20052;-68
2022/02/12 00:46:44;;;;;;;9.17;2.67;;;-0.20;99.90;;;;;;5094535;28;20142;-68
2022/02/12 00:49:12;;;;;;;10.33;2.40;;;-0.20;99.90;;;;;;5094878;28;20131;-68
2022/02/12 00:51:39;;;;;;;11.13;3.40;;;-0.30;99.90;;;;;;5094640;28;20139;-68
2022/02/12 00:54:06;;;;;;;11.93;2.80;;;-0.30;99.90;;;;;;5094410;28;20138;-68
2022/02/12 00:56:33;;;;;;;11.63;3.13;;;-0.30;99.90;;;;;;5093300;28;20138;-68
2022/02/12 00:59:00;;;;;;;11.53;2.77;;;-0.30;99.90;;;;;;5094159;28;20056;-68
2022/02/12 01:01:27;;;;;;;8.90;2.33;;;-0.20;99.90;;;;;;5094337;28;20135;-68
2022/02/12 01:03:54;;;;;;;10.67;2.47;;;-0.30;99.90;;;;;;5094154;28;20504;-68
2022/02/12 01:06:22;;;;;;;13.57;2.73;;;-0.30;99.90;;;;;;5094105;28;20571;-68
2022/02/12 01:08:50;;;;;;;11.30;3.00;;;-0.30;99.90;;;;;;5094339;28;20055;-68
2022/02/12 01:11:17;;;;;;;12.33;3.17;;;-0.30;99.90;;;;;;5094766;28;20052;-68
2022/02/12 01:13:44;;;;;;;9.57;2.60;;;-0.30;99.90;;;;;;5094201;28;20576;-68
2022/02/12 01:16:11;;;;;;;10.13;3.70;;;-0.30;99.90;;;;;;5094116;28;20527;-68
2022/02/12 01:18:38;;;;;;;12.57;3.17;;;-0.40;99.90;;;;;;5094206;28;20055;-68
2022/02/12 01:21:05;;;;;;;9.80;2.57;;;-0.50;99.90;;;;;;5094037;28;20567;-68
2022/02/12 01:23:33;;;;;;;10.93;2.80;;;-0.60;99.90;;;;;;5093961;28;20076;-67
2022/02/12 01:26:00;;;;;;;11.93;2.97;;;-0.70;99.90;;;;;;5093766;28;20131;-68
2022/02/12 01:28:27;;;;;;;14.10;2.70;;;-0.70;99.90;;;;;;5093915;28;20133;-68
2022/02/12 01:30:54;;;;;;;12.47;2.93;;;-0.60;99.90;;;;;;5093860;28;20112;-68
2022/02/12 01:33:21;;;;;;;10.07;3.00;;;-0.60;99.90;;;;;;5093722;28;20134;-68
2022/02/12 01:35:48;;;;;;;7.47;2.20;;;-0.60;99.90;;;;;;5093467;28;20135;-68
2022/02/12 01:38:15;;;;;;;12.03;2.90;;;-0.60;99.90;;;;;;5093685;28;20563;-68
2022/02/12 01:40:44;;;;;;;14.33;2.40;;;-0.70;99.90;;;;;;5093607;28;20056;-68
2022/02/12 01:43:13;;;;;;;11.20;2.53;;;-0.70;99.90;;;;;;5093430;28;20060;-68
2022/02/12 01:45:40;;;;;;;12.03;2.30;;;-0.80;99.90;;;;;;5093519;28;20059;-68
2022/02/12 01:48:08;;;;;;;8.83;2.70;;;-0.80;99.90;;;;;;5093322;28;20130;-68
2022/02/12 01:50:35;;;;;;;8.43;2.57;;;-0.80;99.90;;;;;;5093380;28;20494;-68
2022/02/12 01:53:02;;;;;;;15.60;2.93;;;-0.90;99.90;;;;;;5093292;28;20464;-68
2022/02/12 01:55:29;;;;;;;8.00;2.80;;;-0.80;99.90;;;;;;5093347;28;20091;-68
2022/02/12 01:57:57;;;;;;;12.47;2.57;;;-0.70;99.90;;;;;;5093228;28;20134;-68
2022/02/12 02:00:26;;;;;;;10.77;2.70;;;-0.80;99.90;;;;;;5093272;28;20426;-68
2022/02/12 02:02:53;;;;;;;10.40;2.63;;;-0.80;99.90;;;;;;5093069;28;20044;-68
2022/02/12 02:05:20;;;;;;;12.97;2.57;;;-0.90;99.90;;;;;;5093313;28;20380;-68
2022/02/12 02:07:47;;;;;;;16.20;3.00;;;-1.00;99.90;;;;;;5092985;28;20040;-68
2022/02/12 02:10:15;;;;;;;13.57;3.10;;;-1.00;99.90;;;;;;5093034;28;20050;-68
2022/02/12 02:12:42;;;;;;;9.73;2.30;;;-1.00;99.90;;;;;;5092916;28;20471;-68
2022/02/12 02:15:11;;;;;;;12.30;2.33;;;-1.10;99.90;;;;;;5092748;28;20123;-68
2022/02/12 02:17:38;;;;;;;13.03;3.07;;;-1.20;99.90;;;;;;5092851;28;20436;-68
2022/02/12 02:20:07;;;;;;;13.53;3.53;;;-1.20;99.90;;;;;;5092756;28;20134;-68
2022/02/12 02:22:51;;;;;;;13.70;4.70;;;-1.10;99.90;;;;;;5092702;28;20052;-68
2022/02/12 02:25:18;;;;;;;8.70;2.80;;;-1.20;99.90;;;;;;5092579;28;20460;-68
2022/02/12 02:27:45;;;;;;;14.40;3.50;;;-1.10;99.90;;;;;;5092896;28;20082;-68
2022/02/12 02:30:14;;;;;;;10.90;2.63;;;-1.10;99.90;;;;;;5092656;28;20135;-68
2022/02/12 02:32:42;;;;;;;10.00;2.90;;;-1.20;99.90;;;;;;5092622;28;20047;-68
2022/02/12 02:35:11;;;;;;;15.13;3.37;;;-1.20;99.90;;;;;;5092285;28;20495;-68
2022/02/12 02:37:39;;;;;;;13.77;4.57;;;-1.30;99.90;;;;;;5092687;28;20059;-68
2022/02/12 02:40:13;;;;;;;12.93;3.60;;;-1.30;99.90;;;;;;5092338;28;20055;-68
2022/02/12 02:42:42;;;;;;;14.07;4.17;;;-1.20;99.90;;;;;;5092475;28;20052;-68
2022/02/12 02:45:10;;;;;;;16.33;3.20;;;-1.20;99.90;;;;;;5092221;28;20055;-68
2022/02/12 02:47:42;;;;;;;14.30;3.03;;;-1.10;99.90;;;;;;5092259;28;20091;-68
2022/02/12 02:56:00;;;;;;;12.97;3.00;;;-1.10;99.90;;;;;;5092313;28;20056;-68
2022/02/12 02:58:28;;;;;;;9.30;2.60;;;-1.20;99.90;;;;;;5092336;28;20132;-68
2022/02/12 03:00:55;;;;;;;13.40;3.77;;;-1.30;99.90;;;;;;5091975;28;20134;-68
2022/02/12 03:03:22;;;;;;;13.53;3.30;;;-1.40;99.90;;;;;;5092126;28;20131;-68
2022/02/12 03:05:49;;;;;;;19.60;3.40;;;-1.40;99.90;;;;;;5091860;28;20126;-68
2022/02/12 03:08:16;;;;;;;12.13;3.23;;;-1.40;99.90;;;;;;5091847;28;20490;-68
2022/02/12 03:10:45;;;;;;;11.23;3.33;;;-1.30;99.90;;;;;;5091897;28;20135;-68
2022/02/12 03:13:12;;;;;;;13.40;3.63;;;-1.30;99.90;;;;;;5091832;28;20567;-68
2022/02/12 03:15:40;;;;;;;15.73;2.93;;;-1.30;99.90;;;;;;5091774;28;20144;-68
2022/02/12 03:18:07;;;;;;;11.63;2.87;;;-1.30;99.90;;;;;;5092090;28;20127;-68
2022/02/12 03:20:34;;;;;;;13.80;3.10;;;-1.20;99.90;;;;;;5091409;28;20131;-68
2022/02/12 03:23:02;;;;;;;12.43;3.20;;;-1.20;99.90;;;;;;5091649;28;20480;-68
2022/02/12 03:25:29;;;;;;;14.03;3.97;;;-1.30;99.90;;;;;;5091641;28;20452;-68
2022/02/12 03:28:00;;;;;;;13.97;4.20;;;-1.40;99.90;;;;;;5091824;28;20475;-68
2022/02/12 03:30:27;;;;;;;14.13;4.27;;;-1.40;99.90;;;;;;5091964;28;20140;-68
2022/02/12 03:32:54;;;;;;;11.73;3.60;;;-1.50;99.90;;;;;;5091772;28;20083;-68
2022/02/12 03:35:23;;;;;;;16.13;3.23;;;-1.40;99.90;;;;;;5080792;28;20479;-68
2022/02/12 03:37:51;;;;;;;13.90;3.30;;;-1.50;99.90;;;;;;5088160;28;20516;-68
2022/02/12 03:40:18;;;;;;;11.30;3.73;;;-1.60;99.90;;;;;;5092000;28;20079;-68
2022/02/12 03:42:45;;;;;;;14.50;4.00;;;-1.70;99.90;;;;;;5091629;28;20131;-68
2022/02/12 03:45:14;;;;;;;14.83;3.87;;;-1.70;99.90;;;;;;5091475;28;20132;-68
2022/02/12 03:47:41;;;;;;;16.43;4.03;;;-1.70;99.90;;;;;;5091591;28;20135;-68
2022/02/12 03:50:08;;;;;;;11.17;3.70;;;-1.70;99.90;;;;;;5091687;28;20131;-68
2022/02/12 03:52:35;;;;;;;11.20;3.50;;;-1.60;99.90;;;;;;5091657;28;20084;-68
2022/02/12 03:55:02;;;;;;;10.60;3.43;;;-1.60;99.90;;;;;;5091344;28;20131;-68
2022/02/12 03:57:29;;;;;;;15.33;4.20;;;-1.70;99.90;;;;;;5091577;28;20553;-68
2022/02/12 03:59:56;;;;;;;11.93;3.50;;;-1.70;99.90;;;;;;5091512;28;20083;-68
2022/02/12 04:02:25;;;;;;;15.83;4.40;;;-1.80;99.90;;;;;;5091333;28;20136;-68
2022/02/12 04:04:52;;;;;;;16.33;5.17;;;-1.80;99.90;;;;;;5091470;28;20143;-68
2022/02/12 04:07:19;;;;;;;20.87;4.73;;;-1.80;99.90;;;;;;5091316;28;20468;-68
2022/02/12 04:09:46;;;;;;;16.07;4.87;;;-1.80;99.90;;;;;;5091574;28;20086;-68
2022/02/12 04:15:06;;;;;;;14.07;5.20;;;-1.70;99.90;;;;;;5048813;28;20049;-68
2022/02/12 04:17:35;;;;;;;12.43;5.00;;;-1.70;99.90;;;;;;5050864;28;20140;-68
2022/02/12 04:20:03;;;;;;;16.83;4.90;;;-1.70;99.90;;;;;;5048731;28;20463;-68
2022/02/12 04:22:32;;;;;;;13.90;4.73;;;-1.70;99.90;;;;;;5036453;28;20045;-67
2022/02/12 04:24:59;;;;;;;18.03;5.23;;;-1.60;99.90;;;;;;5050759;28;20514;-68
2022/02/12 04:27:25;;;;;;;17.73;4.80;;;-1.50;99.90;;;;;;5050779;28;20132;-68
2022/02/12 04:29:52;;;;;;;23.27;7.10;;;-1.50;99.90;;;;;;5050621;28;20056;-67
2022/02/12 04:32:20;;;;;;;17.17;4.40;;;-1.50;99.90;;;;;;5051639;28;20085;-68
2022/02/12 04:34:49;;;;;;;10.77;4.30;;;-1.50;99.90;;;;;;5052753;28;20053;-67
2022/02/12 04:37:16;;;;;;;18.37;4.57;;;-1.60;99.90;;;;;;5053473;28;20076;-67
2022/02/12 04:39:43;;;;;;;16.50;4.53;;;-1.60;99.90;;;;;;5054719;28;20087;-67
2022/02/12 04:42:11;;;;;;;24.10;5.43;;;-1.60;99.90;;;;;;5054592;28;20167;-67
2022/02/12 04:44:39;;;;;;;19.80;5.13;;;-1.60;99.90;;;;;;5054626;28;20057;-67
2022/02/12 04:47:07;;;;;;;17.33;5.00;;;-1.50;99.90;;;;;;5054475;28;20076;-67
2022/02/12 04:49:34;;;;;;;26.77;7.30;;;-1.50;99.90;;;;;;5054739;28;20110;-68
2022/02/12 04:52:02;;;;;;;27.27;7.60;;;-1.50;99.90;;;;;;5054217;28;20064;-68
2022/02/12 04:54:29;;;;;;;26.50;7.20;;;-1.40;99.90;;;;;;5054398;28;20051;-68
2022/02/12 04:56:57;;;;;;;35.00;10.03;;;-1.30;99.90;;;;;;5053773;28;20052;-68
2022/02/12 04:59:24;;;;;;;43.83;10.27;;;-1.20;99.90;;;;;;5054191;28;20507;-66
2022/02/12 05:01:51;;;;;;;64.00;10.63;;;-1.10;99.90;;;;;;5054282;28;20090;-66
2022/02/12 05:04:18;;;;;;;65.63;11.30;;;-1.10;99.90;;;;;;5053980;28;20420;-66
2022/02/12 05:06:45;;;;;;;155.77;13.27;;;-1.10;99.90;;;;;;5053696;28;20131;-66
2022/02/12 05:09:14;;;;;;;101.63;12.80;;;-1.10;99.90;;;;;;5054208;28;20128;-66
2022/02/12 05:11:42;;;;;;;300.00;18.70;;;-1.10;99.90;;;;;;5053862;28;20059;-66
2022/02/12 05:14:10;;;;;;;223.60;19.43;;;-1.10;99.90;;;;;;5053997;28;20081;-66
2022/02/12 05:16:37;;;;;;;195.03;14.83;;;-1.10;99.90;;;;;;5053636;28;20056;-66
2022/02/12 05:19:05;;;;;;;125.90;12.67;;;-1.10;99.90;;;;;;5053892;28;20048;-66
2022/02/12 05:21:31;;;;;;;127.80;14.47;;;-1.00;99.90;;;;;;5054217;28;20102;-66
2022/02/12 05:23:59;;;;;;;338.17;23.97;;;-1.00;99.90;;;;;;5054167;28;20049;-66
2022/02/12 05:26:27;;;;;;;256.57;20.97;;;-1.20;99.90;;;;;;5053377;28;20135;-66
2022/02/12 05:28:55;;;;;;;227.93;20.90;;;-1.10;99.90;;;;;;5055476;28;20060;-66
2022/02/12 05:31:22;;;;;;;499.17;33.60;;;-1.10;99.90;;;;;;5056773;28;20084;-66
2022/02/12 05:33:49;;;;;;;306.63;21.83;;;-1.30;99.90;;;;;;5055797;28;20155;-66
2022/02/12 05:36:16;;;;;;;222.63;17.13;;;-1.20;99.90;;;;;;5055041;28;20132;-66
2022/02/12 05:38:43;;;;;;;386.60;21.97;;;-1.10;99.90;;;;;;5053673;28;20053;-66
2022/02/12 05:41:12;;;;;;;391.77;24.00;;;-1.20;99.90;;;;;;5053359;28;20053;-66
2022/02/12 05:43:40;;;;;;;205.03;18.23;;;-1.10;99.90;;;;;;5053230;28;20251;-66
2022/02/12 05:46:08;;;;;;;289.20;19.50;;;-1.00;99.90;;;;;;5053341;28;20104;-66
2022/02/12 05:48:35;;;;;;;213.30;14.97;;;-1.20;99.90;;;;;;5053671;28;20052;-66
2022/02/12 05:51:03;;;;;;;149.73;15.03;;;-1.20;99.90;;;;;;5053399;28;20119;-66
2022/02/12 05:53:30;;;;;;;323.83;19.30;;;-1.00;99.90;;;;;;5052972;28;20053;-66
2022/02/12 05:55:57;;;;;;;217.97;14.57;;;-1.20;99.90;;;;;;5053003;28;20403;-66
2022/02/12 05:58:24;;;;;;;291.87;21.03;;;-1.10;99.90;;;;;;5053199;28;20045;-66
2022/02/12 06:00:53;;;;;;;286.07;23.10;;;-1.30;99.90;;;;;;5053230;28;20153;-66
2022/02/12 06:03:20;;;;;;;205.93;19.57;;;-1.30;99.90;;;;;;5053027;28;20484;-66
2022/02/12 06:05:46;;;;;;;189.87;15.00;;;-1.40;99.90;;;;;;5052617;28;20563;-66
2022/02/12 06:08:14;;;;;;;254.53;20.43;;;-1.30;99.90;;;;;;5052881;28;20052;-66
2022/02/12 06:10:40;;;;;;;138.83;15.47;;;-1.20;99.90;;;;;;5053000;28;20407;-66
2022/02/12 06:13:07;;;;;;;247.47;20.30;;;-1.10;99.90;;;;;;5052678;28;20055;-66
2022/02/12 06:15:36;;;;;;;129.40;12.83;;;-1.10;99.90;;;;;;5052388;28;20148;-66
2022/02/12 06:18:04;;;;;;;191.67;17.47;;;-1.00;99.90;;;;;;5052665;28;20396;-66
2022/02/12 06:20:32;;;;;;;125.83;14.57;;;-1.00;99.90;;;;;;5052846;28;20591;-66
2022/02/12 06:22:59;;;;;;;124.90;14.10;;;-1.10;99.90;;;;;;5052512;28;20558;-66
2022/02/12 06:25:26;;;;;;;97.00;12.47;;;-1.10;99.90;;;;;;5052203;28;20058;-66
2022/02/12 06:27:53;;;;;;;59.53;11.00;;;-1.00;99.90;;;;;;5052640;28;20049;-66
2022/02/12 06:30:20;;;;;;;147.67;15.17;;;-0.80;99.90;;;;;;5052644;28;20128;-66
2022/02/12 06:32:47;;;;;;;112.13;15.07;;;-1.00;99.90;;;;;;5052727;28;20575;-66
2022/02/12 06:35:15;;;;;;;123.33;13.43;;;-0.90;99.90;;;;;;5051963;28;20594;-66
2022/02/12 06:37:42;;;;;;;158.57;14.07;;;-1.00;99.90;;;;;;5052619;28;20053;-66
2022/02/12 06:40:10;;;;;;;101.13;11.77;;;-1.00;99.90;;;;;;5052671;28;20136;-66
2022/02/12 06:42:37;;;;;;;142.97;13.43;;;-1.10;99.90;;;;;;5052261;28;20484;-66
2022/02/12 06:45:05;;;;;;;164.93;14.27;;;-1.10;99.90;;;;;;5051948;28;20049;-66
2022/02/12 06:47:32;;;;;;;136.83;13.10;;;-1.10;99.90;;;;;;5052312;28;20516;-66
2022/02/12 06:49:59;;;;;;;116.07;13.00;;;-1.00;99.90;;;;;;5052338;28;20057;-66
2022/02/12 06:52:27;;;;;;;78.47;11.07;;;-1.10;99.90;;;;;;5052205;28;20151;-66
2022/02/12 06:54:56;;;;;;;124.07;12.10;;;-1.10;99.90;;;;;;5051492;28;20131;-66
2022/02/12 06:57:22;;;;;;;66.80;12.33;;;-1.00;99.90;;;;;;5052613;28;20393;-66
2022/02/12 06:59:49;;;;;;;99.00;12.43;;;-1.00;99.90;;;;;;5052263;28;20056;-66
2022/02/12 07:02:17;;;;;;;99.13;12.20;;;-0.90;99.90;;;;;;5051869;28;20136;-66
2022/02/12 07:04:44;;;;;;;186.93;21.53;;;-0.90;99.90;;;;;;5051309;28;20592;-66
2022/02/12 07:07:11;;;;;;;268.30;24.47;;;-1.00;99.90;;;;;;5052049;28;20055;-66
2022/02/12 07:09:40;;;;;;;153.43;14.53;;;-1.20;99.90;;;;;;5052439;28;20378;-66
2022/02/12 07:12:07;;;;;;;75.70;12.60;;;-1.00;99.90;;;;;;5052161;28;20087;-66
2022/02/12 07:14:34;;;;;;;82.43;11.77;;;-0.90;99.90;;;;;;5051657;28;20132;-66
2022/02/12 07:17:03;;;;;;;79.43;13.27;;;-0.90;99.90;;;;;;5051659;28;20053;-66
2022/02/12 07:19:30;;;;;;;117.23;15.07;;;-0.90;99.90;;;;;;5051932;28;20045;-66
2022/02/12 07:21:56;;;;;;;51.33;8.57;;;-0.90;99.90;;;;;;5052082;28;20071;-66
2022/02/12 07:24:23;;;;;;;54.50;9.87;;;-1.00;99.90;;;;;;5051672;28;20143;-66
2022/02/12 07:26:52;;;;;;;37.27;9.20;;;-1.00;99.90;;;;;;5051478;28;20052;-66
2022/02/12 07:29:19;;;;;;;36.93;8.67;;;-1.00;99.90;;;;;;5051724;28;20075;-66
2022/02/12 07:31:46;;;;;;;30.40;7.73;;;-0.90;99.90;;;;;;5051621;28;20142;-66
2022/02/12 07:34:15;;;;;;;22.60;7.60;;;-1.10;99.90;;;;;;5051539;28;20057;-66
2022/02/12 07:36:42;;;;;;;35.03;8.43;;;-1.10;99.90;;;;;;5051349;28;20060;-66
2022/02/12 07:39:09;;;;;;;23.77;7.43;;;-1.20;99.90;;;;;;5051589;28;20049;-66
2022/02/12 07:41:35;;;;;;;28.53;8.30;;;-1.00;99.90;;;;;;5051608;28;20104;-66
2022/02/12 07:44:04;;;;;;;30.97;8.83;;;-0.80;99.90;;;;;;5051303;28;20519;-66
2022/02/12 07:46:31;;;;;;;37.47;9.60;;;-0.80;99.90;;;;;;5051094;28;20140;-66
2022/02/12 07:48:58;;;;;;;30.93;8.97;;;-0.70;99.90;;;;;;5051521;28;20132;-66
2022/02/12 07:51:25;;;;;;;49.83;9.93;;;-0.50;99.90;;;;;;5051457;28;20049;-66
2022/02/12 07:53:52;;;;;;;53.67;9.97;;;-0.70;99.90;;;;;;5051077;28;20136;-66
2022/02/12 07:56:19;;;;;;;38.20;10.03;;;-0.50;99.90;;;;;;5050995;28;20159;-66
2022/02/12 07:58:46;;;;;;;31.90;9.37;;;-0.30;99.90;;;;;;5051160;28;20152;-66
2022/02/12 08:01:15;;;;;;;34.10;11.33;;;-0.40;99.90;;;;;;5051476;28;20052;-66
2022/02/12 08:03:42;;;;;;;33.00;11.00;;;0.00;99.90;;;;;;5051195;28;20045;-66
2022/02/12 08:07:27;;;;;;;74.40;13.57;;;0.20;99.90;;;;;;5052852;28;20140;-66
2022/02/12 08:08:55;;;;;;;49.22;11.68;;;0.10;99.90;;;;;;5055159;28;20049;-66
2022/02/12 08:11:27;;;;;;;45.13;10.10;;;0.30;99.90;;;;;;5055482;28;20463;-66
2022/02/12 08:13:54;;;;;;;53.93;10.83;;;0.70;99.90;;;;;;5055544;28;20079;-66
2022/02/12 08:16:22;;;;;;;46.90;10.43;;;1.00;99.90;;;;;;5055022;28;20144;-69
2022/02/12 08:18:49;;;;;;;152.90;18.43;;;1.20;99.90;;;;;;5055504;28;20527;-66
2022/02/12 08:21:16;;;;;;;119.10;15.53;;;1.20;99.90;;;;;;5055316;28;20136;-68
2022/02/12 08:23:43;;;;;;;140.87;18.17;;;1.10;99.90;;;;;;5055314;28;20091;-67
2022/02/12 08:26:11;;;;;;;55.77;11.00;;;1.00;99.90;;;;;;5055374;28;20568;-69
2022/02/12 08:28:38;;;;;;;62.83;11.67;;;0.90;99.90;;;;;;5055345;28;20583;-66
2022/02/12 08:31:05;;;;;;;73.90;10.60;;;0.70;99.90;;;;;;5055214;28;20072;-69
2022/02/12 08:33:33;;;;;;;52.80;10.93;;;0.70;99.90;;;;;;5055516;28;20264;-66
2022/02/12 08:36:00;;;;;;;166.47;16.87;;;0.60;99.90;;;;;;5055268;28;20080;-66
2022/02/12 08:38:27;;;;;;;60.97;11.37;;;0.30;99.90;;;;;;5055199;28;20110;-69
2022/02/12 08:40:55;;;;;;;129.77;16.50;;;0.30;99.90;;;;;;5055286;28;20075;-66
2022/02/12 08:43:22;;;;;;;34.67;9.23;;;0.70;99.90;;;;;;5055240;28;20064;-67
2022/02/12 08:45:49;;;;;;;85.80;13.57;;;0.80;99.90;;;;;;5054646;28;20568;-67
2022/02/12 08:48:16;;;;;;;25.20;9.10;;;1.00;99.90;;;;;;5054920;28;20049;-67
2022/02/12 08:50:45;;;;;;;23.97;9.23;;;1.00;99.90;;;;;;5054965;28;20059;-67
2022/02/12 08:53:12;;;;;;;22.97;8.50;;;0.80;99.90;;;;;;5054873;28;20048;-67
2022/02/12 08:55:39;;;;;;;18.93;8.03;;;0.50;99.90;;;;;;5054606;28;20475;-67
2022/02/12 08:58:05;;;;;;;29.97;9.33;;;1.10;99.90;;;;;;5054694;28;20559;-67
2022/02/12 09:00:33;;;;;;;27.60;8.83;;;1.50;99.90;;;;;;5054771;28;20045;-67
2022/02/12 09:03:00;;;;;;;26.83;9.83;;;1.60;99.90;;;;;;5054703;28;20072;-67
2022/02/12 09:05:28;;;;;;;111.90;18.07;;;1.60;99.90;;;;;;5054231;28;20106;-67
2022/02/12 09:07:56;;;;;;;39.80;11.40;;;1.70;99.90;;;;;;5054948;28;20057;-67
2022/02/12 09:10:23;;;;;;;27.47;8.20;;;1.70;99.90;;;;;;5054669;28;20139;-67
2022/02/12 09:12:50;;;;;;;20.80;7.77;;;1.70;99.90;;;;;;5054184;28;20131;-67
2022/02/12 09:15:17;;;;;;;17.63;7.70;;;2.10;99.90;;;;;;5054079;28;20108;-67
2022/02/12 09:17:44;;;;;;;19.27;7.70;;;2.20;99.90;;;;;;5053483;28;20132;-67
2022/02/12 09:20:12;;;;;;;33.57;8.67;;;2.70;99.90;;;;;;5054297;28;20049;-67
2022/02/12 09:22:39;;;;;;;19.73;8.57;;;2.90;99.90;;;;;;5054476;28;20135;-67
2022/02/12 09:25:08;;;;;;;15.60;6.73;;;2.90;99.90;;;;;;5054076;28;20135;-67
2022/02/12 09:27:36;;;;;;;16.17;7.27;;;2.70;99.90;;;;;;5054377;28;20062;-67
2022/02/12 09:30:04;;;;;;;14.00;5.97;;;3.40;99.90;;;;;;5053765;28;20064;-67
2022/02/12 09:32:31;;;;;;;11.43;5.28;;;3.60;99.90;;;;;;5053983;28;20057;-67
2022/02/12 09:34:58;;;;;;;13.05;5.60;;;3.70;99.90;;;;;;5053358;28;20496;-67
2022/02/12 09:37:25;;;;;;;13.88;5.30;;;3.90;99.90;;;;;;5053569;28;20048;-67
2022/02/12 09:39:52;;;;;;;9.70;4.88;;;4.30;99.90;;;;;;5053400;28;20135;-67
2022/02/12 09:42:21;;;;;;;10.57;4.68;;;3.80;99.90;;;;;;5053444;28;20051;-67
2022/02/12 09:44:48;;;;;;;12.88;4.78;;;3.40;99.90;;;;;;5052856;28;20071;-67
2022/02/12 09:47:47;;;;;;;11.48;5.28;;;3.30;99.90;;;;;;5053339;28;20565;-67
2022/02/12 09:50:15;;;;;;;9.48;4.50;;;4.80;99.90;;;;;;5053175;28;20056;-67
2022/02/12 09:52:47;;;;;;;15.27;5.45;;;4.80;99.90;;;;;;5053329;28;20045;-67
2022/02/12 09:55:14;;;;;;;11.98;5.05;;;5.00;99.90;;;;;;5052633;28;20598;-67
2022/02/12 09:57:43;;;;;;;11.85;5.93;;;4.80;99.90;;;;;;5053100;28;20060;-67
2022/02/12 10:00:11;;;;;;;13.65;6.43;;;5.00;99.90;;;;;;5052955;28;20136;-67
2022/02/12 10:02:38;;;;;;;21.85;6.28;;;5.00;99.90;;;;;;5052888;28;20114;-67
2022/02/12 10:05:23;;;;;;;16.02;6.60;;;5.10;99.90;;;;;;5052533;28;20140;-67
2022/02/12 10:07:52;;;;;;;10.05;5.32;;;5.40;99.90;;;;;;5052764;28;20468;-67
2022/02/12 10:10:20;;;;;;;11.68;5.78;;;5.80;99.90;;;;;;5052808;28;20045;-67
2022/02/12 10:15:30;;;;;;;13.57;6.35;;;8.10;99.90;;;;;;5011692;28;20061;-67
2022/02/12 10:17:58;;;;;;;10.60;5.63;;;9.90;99.90;;;;;;5013231;28;20046;-67
2022/02/12 10:20:29;;;;;;;11.32;5.97;;;11.40;99.90;;;;;;5013328;28;20061;-67
2022/02/12 10:23:04;;;;;;;11.10;5.88;;;10.90;99.90;;;;;;5013339;28;20115;-69
2022/02/12 10:25:31;;;;;;;12.50;6.18;;;10.10;99.90;;;;;;5013029;28;20141;-67
2022/02/12 10:27:59;;;;;;;9.68;6.03;;;12.00;99.90;;;;;;5013069;28;20141;-67
2022/02/12 10:30:28;;;;;;;11.30;6.10;;;12.80;99.90;;;;;;5011900;28;20052;-67
2022/02/12 10:32:56;;;;;;;10.90;6.50;;;14.60;99.90;;;;;;5012653;28;20080;-67
2022/02/12 10:35:23;;;;;;;14.57;7.80;;;15.20;99.90;;;;;;5012507;28;20049;-67
2022/02/12 10:37:52;;;;;;;16.05;9.57;;;15.50;99.90;;;;;;5012929;28;20145;-67
2022/02/12 10:40:20;;;;;;;13.73;7.97;;;16.70;99.90;;;;;;5012663;28;20513;-68
2022/02/12 10:42:47;;;;;;;13.93;8.85;;;17.20;99.20;;;;;;5012617;28;20137;-67
2022/02/12 10:45:18;;;;;;;13.70;7.40;;;16.70;99.70;;;;;;5012112;28;20133;-68
2022/02/12 10:47:47;;;;;;;16.33;8.52;;;17.40;98.10;;;;;;5012925;28;20453;-67
2022/02/12 10:50:15;;;;;;;12.00;7.63;;;16.00;97.90;;;;;;5012481;28;20136;-68
2022/02/12 10:52:44;;;;;;;15.02;8.00;;;17.40;99.50;;;;;;5012454;28;20097;-68
2022/02/12 10:55:29;;;;;;;11.15;7.35;;;17.30;98.10;;;;;;5012087;28;20054;-68
2022/02/12 10:57:57;;;;;;;11.18;6.70;;;19.10;97.30;;;;;;5012115;28;20614;-68
2022/02/12 11:00:27;;;;;;;10.70;6.82;;;20.10;96.70;;;;;;5012089;28;20045;-68
2022/02/12 11:02:56;;;;;;;9.30;5.90;;;20.30;96.30;;;;;;5012017;28;20054;-68
2022/02/12 11:05:24;;;;;;;14.38;5.63;;;20.20;95.30;;;;;;5011857;28;20490;-68
2022/02/12 11:07:52;;;;;;;10.32;5.05;;;21.10;94.70;;;;;;5011980;28;20053;-68
2022/02/12 11:10:20;;;;;;;8.75;5.50;;;22.00;94.60;;;;;;5012099;28;20086;-68
2022/02/12 11:12:47;;;;;;;7.47;4.90;;;21.90;94.60;;;;;;5011964;28;20050;-68
2022/02/12 11:15:14;;;;;;;9.00;5.43;;;23.40;92.60;;;;;;5011671;28;20132;-68
2022/02/12 11:17:43;;;;;;;9.65;5.85;;;22.80;93.20;;;;;;5012072;28;20083;-68
2022/02/12 11:20:13;;;;;;;11.82;6.45;;;24.40;92.70;;;;;;5011951;28;20136;-68
2022/02/12 11:22:41;;;;;;;9.02;5.50;;;24.50;92.60;;;;;;5012148;28;20128;-68
2022/02/12 11:25:34;;;;;;;15.00;6.80;;;24.40;93.10;;;;;;5011592;28;20137;-68
2022/02/12 11:28:08;;;;;;;11.05;5.93;;;23.50;93.00;;;;;;5011678;28;20499;-68
2022/02/12 11:30:37;;;;;;;10.82;6.82;;;23.80;91.90;;;;;;5011736;28;20085;-68
2022/02/12 11:33:19;;;;;;;12.93;6.45;;;25.30;92.60;;;;;;5011853;28;20426;-69
2022/02/12 11:36:19;;;;;;;10.13;6.13;;;24.50;91.40;;;;;;5011575;28;20054;-68
2022/02/12 11:38:49;;;;;;;8.73;5.50;;;23.50;91.10;;;;;;5011701;28;20552;-68
2022/02/12 11:41:23;;;;;;;9.43;5.90;;;20.90;90.90;;;;;;5013657;28;20050;-68
2022/02/12 11:43:51;;;;;;;8.73;5.03;;;23.30;91.70;;;;;;5015465;28;20146;-68
2022/02/12 11:46:43;;;;;;;11.25;5.85;;;22.40;91.50;;;;;;5015234;28;20435;-68
2022/02/12 11:49:25;;;;;;;10.43;5.35;;;23.90;93.00;;;;;;5015485;28;20104;-68
2022/02/12 11:51:54;;;;;;;10.00;5.10;;;21.70;90.50;;;;;;5015471;28;20062;-68
2022/02/12 11:54:56;;;;;;;9.85;5.15;;;19.50;92.50;;;;;;5015294;28;20085;-69
2022/02/12 11:57:43;;;;;;;12.73;5.50;;;18.90;94.90;;;;;;5015568;28;20057;-69
2022/02/12 12:00:39;;;;;;;11.02;4.70;;;22.30;93.50;;;;;;5015164;28;20149;-68
2022/02/12 12:03:11;;;;;;;9.18;4.45;;;21.60;93.10;;;;;;5015489;28;20060;-68
2022/02/12 12:05:38;;;;;;;9.15;4.63;;;20.40;92.00;;;;;;5015379;28;20057;-68
2022/02/12 12:08:12;;;;;;;11.18;3.90;;;20.20;93.50;;;;;;5016409;28;20141;-68
2022/02/12 12:10:41;;;;;;;8.35;2.60;;;20.80;91.30;;;;;;5020664;28;20129;-68
2022/02/12 12:13:40;;;;;;;10.52;4.10;;;20.60;92.00;;;;;;5019749;28;20060;-69
2022/02/12 12:16:23;;;;;;;6.32;2.50;;;20.10;91.90;;;;;;5020188;28;20140;-68
2022/02/12 12:18:51;;;;;;;4.50;2.13;;;16.60;91.60;;;;;;5018840;28;20085;-68
2022/02/12 12:21:18;;;;;;;5.20;1.88;;;15.80;93.10;;;;;;5018603;28;20077;-68
2022/02/12 12:23:57;;;;;;;9.30;1.92;;;16.30;92.90;;;;;;5021596;28;20102;-68
2022/02/12 12:26:45;;;;;;;7.57;1.80;;;16.10;93.60;;;;;;5020421;28;20093;-67
2022/02/12 12:32:06;;;;;;;2.80;1.40;;;16.20;93.30;;;;;;5021916;28;20077;-68
2022/02/12 12:34:33;;;;;;;4.97;1.75;;;11.40;95.90;;;;;;5023153;28;20175;-68
2022/02/12 12:37:03;;;;;;;4.78;1.73;;;13.50;96.10;;;;;;5015117;28;20128;-67
2022/02/12 12:39:37;;;;;;;5.38;1.50;;;15.50;94.20;;;;;;5015390;28;20137;-67
2022/02/12 12:42:12;;;;;;;3.22;1.35;;;16.50;92.00;;;;;;5014988;28;20526;-67
2022/02/12 12:44:39;;;;;;;4.85;1.40;;;14.50;93.70;;;;;;5014754;28;20046;-68
2022/02/12 12:47:06;;;;;;;5.65;1.60;;;16.20;93.00;;;;;;5014592;28;20089;-68
2022/02/12 12:49:39;;;;;;;3.50;1.30;;;12.20;94.20;;;;;;5014672;28;20137;-68
2022/02/12 12:52:07;;;;;;;3.28;1.63;;;13.60;93.70;;;;;;5013956;28;20093;-67
2022/02/12 12:54:39;;;;;;;5.60;1.48;;;10.30;96.90;;;;;;5014590;28;20050;-68
2022/02/12 12:57:07;;;;;;;3.60;1.52;;;9.80;99.00;;;;;;5014380;28;20061;-67